createdAt,value
2022-09-17T00:08:16.448Z,97002.38
2022-09-17T00:18:18.296Z,96997.53
2022-09-17T00:28:19.762Z,96992.34
2022-09-17T00:38:21.192Z,96998.53
2022-09-17T00:48:22.670Z,97007.72
2022-09-17T00:58:26.537Z,97014.03
2022-09-17T01:08:57.523Z,97022.00
2022-09-17T01:19:05.377Z,97017.88
2022-09-17T01:29:25.301Z,97020.28
2022-09-17T01:39:58.105Z,97016.59
2022-09-17T01:50:07.382Z,97017.41
2022-09-17T02:00:13.879Z,97023.22
2022-09-17T02:10:20.299Z,97030.00
2022-09-17T02:30:59.374Z,97024.13
2022-09-17T02:41:03.863Z,97020.13
2022-09-17T02:51:15.538Z,96997.63
2022-09-17T03:01:32.395Z,96998.84
2022-09-17T03:11:34.018Z,96990.28
2022-09-17T03:21:35.476Z,96990.06
2022-09-17T03:31:36.930Z,96992.63
2022-09-17T03:41:38.432Z,96996.22
2022-09-17T03:51:39.829Z,96985.56
2022-09-17T04:01:41.414Z,96969.63
2022-09-17T04:11:42.909Z,96962.22
2022-09-17T04:21:44.289Z,96974.38
2022-09-17T04:31:45.838Z,96970.97
2022-09-17T04:41:47.917Z,96948.66
2022-09-17T04:51:49.807Z,96957.38
2022-09-17T05:01:51.331Z,96941.19
2022-09-17T05:11:52.844Z,96964.31
2022-09-17T05:21:54.298Z,96975.78
2022-09-17T05:31:55.807Z,97005.19
2022-09-17T05:41:57.189Z,97044.91
2022-09-17T05:51:58.623Z,97052.81
2022-09-17T06:02:00.031Z,97108.66
2022-09-17T06:12:02.157Z,97120.03
2022-09-17T06:22:05.364Z,97120.56
2022-09-17T06:32:10.906Z,97139.28
2022-09-17T06:42:12.469Z,97127.06
2022-09-17T06:52:13.939Z,97121.59
2022-09-17T07:02:15.640Z,97124.19
2022-09-17T07:12:17.158Z,97117.25
2022-09-17T07:22:19.170Z,97113.44
2022-09-17T07:32:20.906Z,97129.06
2022-09-17T07:42:22.364Z,97130.97
2022-09-17T07:52:24.672Z,97131.69
2022-09-17T08:02:26.288Z,97145.94
2022-09-17T08:12:28.173Z,97160.28
2022-09-17T08:22:31.573Z,97168.69
2022-09-17T08:32:33.464Z,97163.69
2022-09-17T08:42:47.920Z,97161.75
2022-09-17T08:53:24.211Z,97167.31
2022-09-17T09:03:44.472Z,97167.31
2022-09-17T09:14:01.220Z,97162.25
2022-09-17T09:24:20.316Z,97160.72
2022-09-17T09:34:23.757Z,97160.41
2022-09-17T09:44:25.913Z,97175.41
2022-09-17T09:54:48.478Z,97182.78
2022-09-17T10:04:53.354Z,97169.47
2022-09-17T10:14:56.145Z,97169.91
2022-09-17T10:24:59.324Z,97184.25
2022-09-17T10:35:24.292Z,97177.84
2022-09-17T10:45:27.653Z,97180.44
2022-09-17T10:55:37.163Z,97178.50
2022-09-17T11:05:56.006Z,97184.88
2022-09-17T11:15:57.446Z,97166.41
2022-09-17T11:26:08.349Z,97152.44
2022-09-17T11:36:24.740Z,97158.25
2022-09-17T11:46:32.267Z,97169.13
2022-09-17T11:56:41.430Z,97147.94
2022-09-17T12:07:21.922Z,97135.28
2022-09-17T12:17:44.958Z,97127.47
2022-09-17T12:27:58.382Z,97109.13
2022-09-17T12:38:15.028Z,97089.44
2022-09-17T12:48:44.150Z,97082.72
2022-09-17T12:59:07.434Z,97066.69
2022-09-17T13:09:42.805Z,97060.97
2022-09-17T13:19:52.861Z,97052.59
2022-09-17T13:29:55.515Z,97059.66
2022-09-17T13:39:59.543Z,97072.34
2022-09-17T13:50:08.249Z,97076.06
2022-09-17T14:00:48.718Z,97082.94
2022-09-17T14:10:50.208Z,97088.25
2022-09-17T14:21:14.774Z,97096.97
2022-09-17T14:31:21.107Z,97094.59
2022-09-17T14:41:33.050Z,97109.31
2022-09-17T14:51:39.841Z,97120.00
2022-09-17T15:01:47.707Z,97115.59
2022-09-17T15:11:53.364Z,97108.97
2022-09-17T15:21:58.160Z,97105.78
2022-09-17T15:32:02.965Z,97117.22
2022-09-17T15:42:04.869Z,97122.03
2022-09-17T15:52:31.420Z,97123.94
2022-09-17T16:02:32.928Z,97117.19
2022-09-17T16:12:34.414Z,97128.06
2022-09-17T16:22:35.921Z,97125.22
2022-09-17T16:32:38.108Z,97132.88
2022-09-17T16:42:40.139Z,97146.81
2022-09-17T16:52:41.928Z,97140.63
2022-09-17T17:02:44.204Z,97138.56
2022-09-17T17:12:45.849Z,97138.56
2022-09-17T17:22:47.479Z,97144.47
2022-09-17T17:32:51.283Z,97143.34
2022-09-17T17:42:52.820Z,97165.94
2022-09-17T17:52:55.060Z,97182.81
2022-09-17T18:02:56.564Z,97186.41
2022-09-17T18:12:58.920Z,97210.78
2022-09-17T18:23:00.330Z,97213.56
2022-09-17T18:33:01.758Z,97231.66
2022-09-17T18:43:03.160Z,97265.19
2022-09-17T18:53:04.586Z,97268.28
2022-09-17T19:03:06.087Z,97236.31
2022-09-17T19:13:07.829Z,97248.56
2022-09-17T19:23:09.404Z,97275.13
2022-09-17T19:33:11.033Z,97271.16
2022-09-17T19:43:12.542Z,97272.81
2022-09-17T19:53:13.944Z,97273.50
2022-09-17T20:03:15.469Z,97272.00
2022-09-17T20:13:20.430Z,97285.16
2022-09-17T20:23:21.826Z,97283.13
2022-09-17T20:33:24.339Z,97276.50
2022-09-17T20:43:25.904Z,97281.59
2022-09-17T20:53:29.418Z,97283.16
2022-09-17T21:03:31.013Z,97282.91
2022-09-17T21:13:32.490Z,97293.44
2022-09-17T21:23:36.438Z,97295.31
2022-09-17T21:33:38.309Z,97294.53
2022-09-17T21:43:41.866Z,97297.38
2022-09-17T21:53:43.882Z,97307.56
2022-09-17T22:03:45.810Z,97311.94
2022-09-17T22:14:10.771Z,97312.03
2022-09-17T22:24:13.587Z,97325.13
2022-09-17T22:34:19.758Z,97321.41
2022-09-17T22:44:21.274Z,97323.47
2022-09-17T22:54:22.725Z,97335.31
2022-09-17T23:04:24.275Z,97337.88
2022-09-17T23:14:25.989Z,97338.44
2022-09-17T23:24:27.404Z,97329.69
2022-09-17T23:34:28.861Z,97342.38
2022-09-17T23:44:30.601Z,97357.75
2022-09-17T23:54:32.037Z,97359.50
